createdAt,value
2022-12-29T00:02:47.651Z,76.09
2022-12-29T00:07:50.531Z,76.95
2022-12-29T00:13:10.834Z,78.06
2022-12-29T00:18:14.930Z,77.66
2022-12-29T00:23:35.334Z,77.23
2022-12-29T00:29:04.191Z,77.17
2022-12-29T00:34:29.939Z,75.95
2022-12-29T00:39:50.225Z,76.62
2022-12-29T00:44:53.009Z,77.01
2022-12-29T00:49:57.136Z,77.18
2022-12-29T00:54:59.913Z,75.61
2022-12-29T01:00:03.155Z,76.89
2022-12-29T01:05:08.217Z,75.53
2022-12-29T01:10:15.691Z,75.33
2022-12-29T01:15:18.579Z,75.90
2022-12-29T01:20:22.746Z,76.07
2022-12-29T01:25:25.561Z,76.65
2022-12-29T01:30:28.342Z,75.79
2022-12-29T01:35:32.757Z,75.94
2022-12-29T01:40:35.561Z,77.09
2022-12-29T01:45:38.272Z,78.90
2022-12-29T01:50:47.430Z,80.14
2022-12-29T01:55:54.791Z,79.03
2022-12-29T02:00:58.570Z,78.22
2022-12-29T02:06:09.449Z,77.90
2022-12-29T02:11:14.978Z,78.38
2022-12-29T02:16:31.933Z,84.81
2022-12-29T02:22:07.565Z,88.15
2022-12-29T02:27:31.122Z,90.63
2022-12-29T02:32:41.543Z,89.49
2022-12-29T02:37:51.193Z,89.70
2022-12-29T02:43:02.012Z,87.26
2022-12-29T02:48:15.294Z,86.09
2022-12-29T02:53:42.011Z,84.18
2022-12-29T02:58:44.912Z,83.83
2022-12-29T03:04:05.878Z,81.28
2022-12-29T03:09:20.346Z,80.55
2022-12-29T03:14:48.977Z,79.87
2022-12-29T03:19:57.872Z,78.89
2022-12-29T03:25:04.981Z,78.12
2022-12-29T03:30:09.990Z,78.04
2022-12-29T03:35:18.432Z,77.70
2022-12-29T03:40:24.506Z,76.98
2022-12-29T03:45:28.096Z,76.77
2022-12-29T03:50:32.613Z,75.40
2022-12-29T03:55:35.655Z,75.64
2022-12-29T04:00:38.857Z,74.84
2022-12-29T04:05:43.054Z,73.78
2022-12-29T04:10:46.003Z,74.12
2022-12-29T04:15:50.792Z,73.09
2022-12-29T04:21:01.868Z,72.22
2022-12-29T04:26:07.959Z,72.03
2022-12-29T04:31:15.246Z,74.27
2022-12-29T04:36:25.329Z,73.77
2022-12-29T04:41:32.971Z,74.30
2022-12-29T04:46:36.626Z,76.53
2022-12-29T04:51:47.756Z,81.45
2022-12-29T04:56:52.062Z,81.11
2022-12-29T05:01:55.406Z,83.01
2022-12-29T05:07:00.003Z,82.77
2022-12-29T05:12:04.100Z,84.67
2022-12-29T05:17:09.266Z,86.11
2022-12-29T05:22:13.541Z,84.54
2022-12-29T05:27:18.394Z,84.26
2022-12-29T05:32:28.207Z,82.34
2022-12-29T05:37:32.474Z,82.84
2022-12-29T05:42:35.739Z,82.00
2022-12-29T05:47:57.159Z,80.27
2022-12-29T05:53:17.266Z,78.63
2022-12-29T05:58:22.317Z,77.89
2022-12-29T06:03:25.587Z,76.33
2022-12-29T06:08:30.102Z,75.81
2022-12-29T06:13:33.125Z,74.11
2022-12-29T06:18:36.266Z,73.56
2022-12-29T06:23:40.546Z,72.89
2022-12-29T06:28:43.326Z,75.14
2022-12-29T06:33:49.838Z,100.00
2022-12-29T06:38:54.645Z,100.00
2022-12-29T06:43:59.396Z,100.00
2022-12-29T06:49:20.593Z,100.00
2022-12-29T06:54:28.288Z,100.00
2022-12-29T06:59:31.553Z,100.00
2022-12-29T07:04:34.742Z,100.00
2022-12-29T07:09:38.981Z,99.44
2022-12-29T07:14:43.504Z,97.07
2022-12-29T07:19:46.605Z,98.58
2022-12-29T07:24:50.722Z,97.25
2022-12-29T07:29:53.539Z,95.97
2022-12-29T07:34:56.349Z,91.21
2022-12-29T07:40:00.523Z,88.92
2022-12-29T07:45:03.463Z,86.85
2022-12-29T07:50:24.105Z,84.61
2022-12-29T07:55:28.437Z,83.93
2022-12-29T08:00:31.277Z,83.14
2022-12-29T08:05:36.413Z,81.54
2022-12-29T08:10:40.668Z,81.06
2022-12-29T08:15:43.513Z,80.33
2022-12-29T08:20:49.858Z,80.33
2022-12-29T08:26:00.881Z,79.63
2022-12-29T08:31:04.445Z,78.69
2022-12-29T08:36:09.249Z,78.23
2022-12-29T08:41:13.388Z,77.64
2022-12-29T08:46:16.274Z,76.45
2022-12-29T08:51:22.929Z,75.59
2022-12-29T08:56:29.724Z,78.57
2022-12-29T09:01:37.244Z,80.19
2022-12-29T09:06:40.960Z,80.06
2022-12-29T09:11:45.320Z,80.12
2022-12-29T09:17:05.514Z,80.90
2022-12-29T09:22:08.391Z,81.18
2022-12-29T09:27:12.575Z,80.17
2022-12-29T09:32:18.809Z,78.39
2022-12-29T09:37:22.559Z,75.94
2022-12-29T09:42:31.543Z,77.48
2022-12-29T09:47:34.430Z,75.92
2022-12-29T09:52:40.178Z,74.84
2022-12-29T09:57:48.681Z,75.09
2022-12-29T10:02:56.752Z,74.23
2022-12-29T10:08:17.239Z,72.19
2022-12-29T10:13:35.635Z,71.79
2022-12-29T10:18:59.587Z,71.34
2022-12-29T10:24:06.748Z,68.90
2022-12-29T10:29:18.101Z,66.62
2022-12-29T10:34:25.187Z,66.30
2022-12-29T10:39:33.793Z,65.46
2022-12-29T10:44:39.877Z,64.42
2022-12-29T10:49:47.153Z,63.36
2022-12-29T10:54:54.274Z,63.21
2022-12-29T10:59:59.626Z,62.23
2022-12-29T11:05:05.773Z,62.75
2022-12-29T11:10:20.111Z,62.48
2022-12-29T11:15:24.306Z,62.86
2022-12-29T11:20:33.848Z,62.53
2022-12-29T11:25:36.623Z,66.01
2022-12-29T11:30:40.931Z,65.53
2022-12-29T11:35:45.586Z,64.92
2022-12-29T11:40:49.026Z,64.54
2022-12-29T11:45:55.064Z,63.90
2022-12-29T11:51:01.307Z,64.52
2022-12-29T11:56:08.206Z,64.60
2022-12-29T12:01:21.657Z,63.98
2022-12-29T12:06:25.679Z,64.12
2022-12-29T12:11:37.297Z,63.98
2022-12-29T12:16:45.578Z,63.73
2022-12-29T12:21:54.568Z,62.90
2022-12-29T12:27:01.881Z,62.40
2022-12-29T12:32:13.671Z,62.83
2022-12-29T12:37:55.380Z,61.85
2022-12-29T12:43:15.169Z,61.30
2022-12-29T12:48:41.085Z,62.48
2022-12-29T12:53:55.862Z,61.98
2022-12-29T12:59:09.544Z,62.39
2022-12-29T13:04:35.188Z,62.58
2022-12-29T13:09:52.970Z,63.47
2022-12-29T13:15:10.720Z,63.15
2022-12-29T13:20:26.663Z,63.34
2022-12-29T13:25:42.192Z,62.65
2022-12-29T13:30:50.320Z,62.77
2022-12-29T13:36:02.705Z,63.85
2022-12-29T13:41:10.436Z,63.67
2022-12-29T13:46:19.242Z,63.02
2022-12-29T13:51:28.332Z,63.58
2022-12-29T13:56:38.316Z,66.18
2022-12-29T14:01:46.132Z,67.22
2022-12-29T14:07:01.939Z,66.21
2022-12-29T14:12:23.592Z,65.79
2022-12-29T14:17:26.410Z,65.86
2022-12-29T14:22:33.483Z,65.88
2022-12-29T14:27:54.345Z,65.05
2022-12-29T14:33:15.620Z,65.61
2022-12-29T14:38:22.936Z,65.83
2022-12-29T14:43:29.050Z,67.60
2022-12-29T14:48:38.771Z,68.73
2022-12-29T14:53:48.803Z,67.41
2022-12-29T14:58:55.672Z,67.43
2022-12-29T15:04:02.673Z,67.28
2022-12-29T15:09:12.818Z,67.17
2022-12-29T15:14:50.930Z,66.03
2022-12-29T15:19:53.987Z,66.31
2022-12-29T15:24:59.910Z,65.98
2022-12-29T15:30:13.844Z,65.02
2022-12-29T15:35:29.950Z,64.75
2022-12-29T15:40:34.869Z,65.06
2022-12-29T15:45:37.989Z,64.13
2022-12-29T15:50:44.049Z,64.08
2022-12-29T15:55:48.785Z,63.77
2022-12-29T16:00:54.043Z,63.74
2022-12-29T16:05:58.846Z,63.59
2022-12-29T16:11:04.925Z,64.04
2022-12-29T16:16:16.306Z,65.87
2022-12-29T16:21:23.345Z,64.85
2022-12-29T16:26:27.621Z,64.88
2022-12-29T16:31:36.793Z,65.95
2022-12-29T16:36:53.733Z,64.89
2022-12-29T16:41:58.048Z,64.89
2022-12-29T16:47:20.977Z,64.50
2022-12-29T16:52:26.060Z,63.93
2022-12-29T16:57:34.714Z,65.69
2022-12-29T17:02:45.415Z,65.70
2022-12-29T17:07:49.171Z,66.16
2022-12-29T17:12:53.290Z,65.23
2022-12-29T17:17:57.576Z,64.87
2022-12-29T17:23:01.173Z,71.29
2022-12-29T17:28:12.102Z,90.99
2022-12-29T17:33:16.952Z,95.35
2022-12-29T17:38:23.660Z,95.71
2022-12-29T17:43:34.788Z,96.28
2022-12-29T17:48:39.684Z,94.61
2022-12-29T17:53:42.581Z,93.22
2022-12-29T17:58:48.904Z,92.67
2022-12-29T18:03:51.778Z,91.69
2022-12-29T18:08:54.693Z,90.23
2022-12-29T18:13:58.872Z,89.33
2022-12-29T18:19:01.720Z,87.31
2022-12-29T18:24:04.710Z,84.38
2022-12-29T18:29:08.878Z,83.36
2022-12-29T18:34:16.025Z,82.48
2022-12-29T18:39:18.832Z,80.33
2022-12-29T18:44:24.502Z,80.67
2022-12-29T18:49:27.369Z,79.36
2022-12-29T18:54:32.319Z,79.19
2022-12-29T18:59:36.628Z,77.56
2022-12-29T19:04:39.480Z,77.26
2022-12-29T19:09:42.241Z,76.45
2022-12-29T19:14:46.696Z,76.47
2022-12-29T19:19:49.486Z,77.17
2022-12-29T19:24:58.056Z,77.21
2022-12-29T19:30:04.723Z,77.18
2022-12-29T19:35:08.852Z,76.89
2022-12-29T19:40:14.568Z,76.38
2022-12-29T19:45:20.409Z,75.93
2022-12-29T19:50:23.279Z,76.35
2022-12-29T19:55:26.101Z,75.51
2022-12-29T20:00:30.337Z,76.30
2022-12-29T20:05:33.215Z,76.31
2022-12-29T20:10:36.049Z,77.00
2022-12-29T20:15:44.129Z,76.66
2022-12-29T20:20:47.175Z,76.52
2022-12-29T20:25:56.525Z,77.45
2022-12-29T20:31:03.347Z,77.06
2022-12-29T20:36:08.680Z,78.15
2022-12-29T20:41:11.517Z,78.90
2022-12-29T20:46:20.415Z,77.74
2022-12-29T20:51:24.463Z,77.75
2022-12-29T20:56:29.119Z,78.59
2022-12-29T21:01:34.039Z,77.20
2022-12-29T21:06:37.031Z,77.11
2022-12-29T21:11:39.853Z,76.22
2022-12-29T21:16:44.057Z,76.38
2022-12-29T21:21:46.843Z,76.04
2022-12-29T21:26:50.061Z,76.00
2022-12-29T21:31:54.269Z,76.07
2022-12-29T21:36:57.268Z,75.17
2022-12-29T21:42:01.722Z,75.63
2022-12-29T21:47:06.088Z,74.84
2022-12-29T21:52:08.903Z,74.12
2022-12-29T21:57:33.944Z,74.89
2022-12-29T22:02:55.820Z,73.20
2022-12-29T22:08:16.455Z,73.24
2022-12-29T22:13:19.470Z,73.33
2022-12-29T22:18:23.703Z,73.37
2022-12-29T22:23:27.006Z,72.56
2022-12-29T22:28:30.125Z,73.35
2022-12-29T22:33:35.270Z,71.85
2022-12-29T22:38:38.100Z,72.62
2022-12-29T22:43:40.852Z,71.10
2022-12-29T22:48:45.199Z,71.54
2022-12-29T22:53:49.836Z,71.15
2022-12-29T22:58:52.722Z,72.26
2022-12-29T23:04:11.001Z,72.13
2022-12-29T23:09:21.450Z,71.63
2022-12-29T23:14:24.273Z,72.12
2022-12-29T23:19:28.584Z,72.69
2022-12-29T23:24:31.332Z,71.77
2022-12-29T23:29:34.298Z,71.68
2022-12-29T23:34:38.423Z,71.94
2022-12-29T23:39:41.238Z,71.75
2022-12-29T23:44:43.991Z,70.18
2022-12-29T23:49:48.125Z,71.07
2022-12-29T23:54:50.891Z,72.26
2022-12-29T23:59:53.632Z,72.32
